Time;durP1;ratioP1;P1;durP2;ratioP2;P2;SDS_P1;SDS_P2;PMS_P1;PMS_P2;Temp;Humidity;BMP_temperature;BMP_pressure;BME280_temperature;BME280_humidity;BME280_pressure;Samples;Min_cycle;Max_cycle;Signal;HPM_P1;HPM_P2
2023/01/19 00:00:17;;;;;;;;;;;;;;;1.41;62.09;99500.41;4996862;28;19936;-78
2023/01/19 00:03:21;;;;;;;;;;;;;;;1.61;61.10;99495.44;4996853;28;19968;-78
2023/01/19 00:06:24;;;;;;;;;;;;;;;1.63;61.10;99497.09;4996813;28;19921;-78
2023/01/19 00:09:32;;;;;;;;;;;;;;;1.60;61.10;99497.19;4996794;28;19959;-78
2023/01/19 00:12:35;;;;;;;;;;;;;;;1.61;62.01;99504.00;4996733;28;20398;-78
2023/01/19 00:19:30;;;;;;;;;;;;;;;1.69;62.16;99501.22;4996611;28;19920;-78
2023/01/19 00:22:33;;;;;;;;;;;;;;;1.42;62.60;99509.81;4996565;28;19936;-78
2023/01/19 00:25:41;;;;;;;;;;;;;;;1.73;61.69;99500.22;4996429;28;20404;-78
2023/01/19 00:28:48;;;;;;;;;;;;;;;1.72;61.76;99521.69;4996433;28;19927;-79
2023/01/19 00:31:51;;;;;;;;;;;;;;;1.66;62.37;99521.06;4996342;28;19967;-78
2023/01/19 00:34:54;;;;;;;;;;;;;;;1.72;62.18;99523.44;4996352;28;20390;-78
2023/01/19 00:37:58;;;;;;;;;;;;;;;1.83;62.32;99518.78;4996273;28;20024;-78
2023/01/19 00:41:01;;;;;;;;;;;;;;;1.79;62.10;99527.53;4984394;28;19959;-78
2023/01/19 00:44:07;;;;;;;;;;;;;;;1.61;62.49;99527.22;4996124;28;19920;-77
2023/01/19 00:47:11;;;;;;;;;;;;;;;1.66;62.37;99531.38;4996010;28;20402;-78
2023/01/19 00:50:18;;;;;;;;;;;;;;;1.77;62.20;99532.72;4984163;28;19963;-78
2023/01/19 00:53:21;;;;;;;;;;;;;;;1.45;64.19;99531.16;4995950;28;20005;-78
2023/01/19 00:56:24;;;;;;;;;;;;;;;1.60;64.66;99537.56;4983744;28;19924;-79
2023/01/19 00:59:27;;;;;;;;;;;;;;;2.07;64.06;99537.75;4983702;28;20433;-79
2023/01/19 01:02:30;;;;;;;;;;;;;;;1.91;64.37;99552.88;4995742;28;19964;-78
2023/01/19 01:05:33;;;;;;;;;;;;;;;2.15;64.34;99561.56;4996052;28;20012;-78
2023/01/19 01:08:35;;;;;;;;;;;;;;;2.19;64.27;99563.13;4994910;28;19967;-78
2023/01/19 01:11:40;;;;;;;;;;;;;;;2.04;64.73;99558.47;4995935;28;20287;-78
2023/01/19 01:14:43;;;;;;;;;;;;;;;1.94;65.20;99562.25;4995386;28;19960;-78
2023/01/19 01:17:46;;;;;;;;;;;;;;;2.01;65.68;99550.84;4995459;28;20314;-78
2023/01/19 01:20:49;;;;;;;;;;;;;;;2.07;65.34;99563.53;4995733;28;20500;-78
2023/01/19 01:23:52;;;;;;;;;;;;;;;1.72;66.83;99562.09;4995387;28;19937;-78
2023/01/19 01:26:55;;;;;;;;;;;;;;;1.62;66.99;99562.38;4995085;28;19964;-78
2023/01/19 01:29:58;;;;;;;;;;;;;;;1.72;66.61;99564.66;4995166;28;19968;-79
2023/01/19 01:33:01;;;;;;;;;;;;;;;1.67;67.05;99564.84;4995221;28;19920;-79
2023/01/19 01:36:04;;;;;;;;;;;;;;;2.00;66.12;99568.06;4995117;28;19924;-80
2023/01/19 01:39:07;;;;;;;;;;;;;;;2.14;65.58;99564.19;4995064;28;19920;-80
2023/01/19 01:42:15;;;;;;;;;;;;;;;2.07;65.69;99564.41;4995009;28;20004;-79
2023/01/19 01:45:21;;;;;;;;;;;;;;;1.95;66.42;99566.53;4994979;28;20348;-79
2023/01/19 01:48:27;;;;;;;;;;;;;;;2.17;65.72;99564.94;4994989;28;20318;-80
2023/01/19 01:51:36;;;;;;;;;;;;;;;1.99;66.14;99566.38;4994823;28;19963;-80
2023/01/19 01:54:39;;;;;;;;;;;;;;;1.93;66.71;99561.41;4994834;28;20306;-80
2023/01/19 01:57:45;;;;;;;;;;;;;;;1.88;66.74;99557.28;4994718;28;19925;-80
2023/01/19 02:04:09;;;;;;;;;;;;;;;1.93;66.95;99566.56;4994672;28;19924;-79
2023/01/19 02:13:58;;;;;;;;;;;;;;;2.17;66.79;99557.22;4994490;28;19960;-79
2023/01/19 02:17:02;;;;;;;;;;;;;;;2.23;66.82;99553.56;4994365;28;19972;-78
2023/01/19 02:20:06;;;;;;;;;;;;;;;2.36;65.98;99554.81;4994033;28;19920;-79
2023/01/19 02:23:14;;;;;;;;;;;;;;;2.32;66.39;99554.09;4994207;28;19999;-79
2023/01/19 02:26:23;;;;;;;;;;;;;;;2.39;66.26;99552.13;4994070;28;20343;-80
2023/01/19 02:29:27;;;;;;;;;;;;;;;2.26;66.87;99563.78;4994197;28;19972;-79
2023/01/19 02:32:31;;;;;;;;;;;;;;;2.28;67.23;99556.84;4982237;28;20409;-79
2023/01/19 02:35:36;;;;;;;;;;;;;;;2.26;66.75;99554.28;4982004;28;19944;-79
2023/01/19 02:38:40;;;;;;;;;;;;;;;2.12;67.38;99547.94;4994064;28;20020;-79
2023/01/19 02:41:47;;;;;;;;;;;;;;;2.20;67.32;99545.94;4982302;28;20397;-79
2023/01/19 02:44:52;;;;;;;;;;;;;;;2.26;67.03;99543.97;4982186;28;19968;-79
2023/01/19 02:47:56;;;;;;;;;;;;;;;2.27;66.92;99544.84;4993990;28;19945;-79
2023/01/19 02:51:03;;;;;;;;;;;;;;;2.39;67.06;99539.25;4981955;28;20037;-79
2023/01/19 02:54:24;;;;;;;;;;;;;;;2.32;67.46;99540.34;4993855;28;19967;-79
2023/01/19 02:57:46;;;;;;;;;;;;;;;2.23;67.49;99538.09;4993956;28;20386;-79
2023/01/19 03:01:08;;;;;;;;;;;;;;;2.33;67.82;99529.16;4993776;28;19949;-79
2023/01/19 03:04:20;;;;;;;;;;;;;;;2.28;68.55;99521.56;4981738;28;19972;-79
2023/01/19 03:07:46;;;;;;;;;;;;;;;2.59;67.63;99519.66;4993795;28;19979;-79
2023/01/19 03:11:05;;;;;;;;;;;;;;;2.49;67.83;99514.81;4993659;28;19964;-79
2023/01/19 03:14:12;;;;;;;;;;;;;;;2.46;67.93;99514.94;4993708;28;19963;-78
2023/01/19 03:17:16;;;;;;;;;;;;;;;2.49;67.89;99517.41;4993684;28;19972;-79
2023/01/19 03:20:22;;;;;;;;;;;;;;;2.44;68.47;99511.56;4993644;28;19920;-79
2023/01/19 03:23:28;;;;;;;;;;;;;;;2.28;69.03;99515.56;4993653;28;19920;-80
2023/01/19 03:26:42;;;;;;;;;;;;;;;2.57;68.47;99511.97;4993533;28;20393;-80
2023/01/19 03:29:49;;;;;;;;;;;;;;;2.71;67.83;99509.75;4981409;28;19921;-79
2023/01/19 03:32:55;;;;;;;;;;;;;;;2.52;68.29;99513.84;4983129;28;19963;-78
2023/01/19 03:36:02;;;;;;;;;;;;;;;2.56;68.57;99513.72;4997277;28;19933;-77
2023/01/19 03:39:07;;;;;;;;;;;;;;;2.43;68.89;99509.03;4997304;28;19920;-78
2023/01/19 03:42:13;;;;;;;;;;;;;;;2.50;68.52;99518.25;4985131;28;19928;-78
2023/01/19 03:45:18;;;;;;;;;;;;;;;2.35;68.40;99514.44;4997281;28;19954;-78
2023/01/19 03:48:24;;;;;;;;;;;;;;;2.52;67.78;99513.84;4997172;28;19920;-78
2023/01/19 03:51:27;;;;;;;;;;;;;;;2.45;68.13;99518.38;4997329;28;19990;-79
2023/01/19 03:54:31;;;;;;;;;;;;;;;2.35;68.21;99517.03;4985169;28;19932;-80
2023/01/19 03:57:35;;;;;;;;;;;;;;;2.44;67.83;99526.19;4997305;28;19976;-79
2023/01/19 04:00:38;;;;;;;;;;;;;;;2.52;67.73;99530.19;4996865;28;19968;-79
2023/01/19 04:03:42;;;;;;;;;;;;;;;2.36;68.19;99529.03;4997161;28;19921;-79
2023/01/19 04:06:44;;;;;;;;;;;;;;;2.38;68.45;99534.16;4996844;28;19920;-79
2023/01/19 04:09:47;;;;;;;;;;;;;;;2.23;69.02;99527.75;4996721;28;19920;-79
2023/01/19 04:12:55;;;;;;;;;;;;;;;2.45;68.54;99523.56;4996717;28;19920;-79
2023/01/19 04:16:00;;;;;;;;;;;;;;;2.49;68.71;99534.59;4996525;28;19925;-79
2023/01/19 04:19:02;;;;;;;;;;;;;;;2.62;67.57;99529.88;4996639;28;20068;-79
2023/01/19 04:22:06;;;;;;;;;;;;;;;2.41;68.91;99534.88;4984459;28;19920;-79
2023/01/19 04:25:11;;;;;;;;;;;;;;;2.42;69.68;99536.56;4996451;28;19920;-79
2023/01/19 04:28:14;;;;;;;;;;;;;;;2.57;69.13;99540.34;4996398;28;19940;-78
2023/01/19 04:31:18;;;;;;;;;;;;;;;2.48;69.36;99541.50;4996324;28;20294;-77
2023/01/19 04:34:21;;;;;;;;;;;;;;;2.44;69.71;99536.53;4984272;28;19986;-75
2023/01/19 04:37:24;;;;;;;;;;;;;;;2.51;69.51;99533.66;4996169;28;19924;-76
2023/01/19 04:40:27;;;;;;;;;;;;;;;2.62;68.78;99535.03;4996140;28;19968;-77
2023/01/19 04:43:30;;;;;;;;;;;;;;;2.56;68.81;99534.34;4995871;28;19956;-75
2023/01/19 04:46:33;;;;;;;;;;;;;;;2.59;68.99;99543.72;4996101;28;19967;-75
2023/01/19 05:10:56;;;;;;;8.27;5.65;;;;;;;2.66;70.24;99552.09;5069857;27;2478344;-76
2023/01/19 05:14:00;;;;;;;8.88;5.18;;;;;;;2.70;69.81;99558.81;5124913;28;20416;-76
2023/01/19 05:17:03;;;;;;;9.35;5.50;;;;;;;2.44;70.56;99552.00;5086378;28;20083;-74
2023/01/19 05:20:10;;;;;;;19.67;13.23;;;;;;;2.45;71.17;99559.66;5097505;28;20096;-75
2023/01/19 05:23:13;;;;;;;25.58;18.52;;;;;;;2.71;70.65;99558.78;5104384;28;20644;-74
2023/01/19 05:26:16;;;;;;;21.40;16.42;;;;;;;2.64;71.00;99554.72;5105227;28;20512;-75
2023/01/19 05:29:20;;;;;;;;;;;;;;;2.79;70.34;99563.66;5104246;28;20562;-77
2023/01/19 05:32:24;;;;;;;;;;;;;;;2.71;70.25;99560.50;5103228;28;19918;-75
2023/01/19 05:39:07;;;;;;;28.40;19.25;;;;;;;2.69;70.06;99562.31;5102940;28;20054;-75
2023/01/19 05:42:11;;;;;;;20.67;14.27;;;;;;;2.61;70.26;99553.97;5102134;28;20046;-76
2023/01/19 05:49:32;;;;;;;17.42;12.48;;;;;;;2.60;69.08;99570.38;5083303;28;20627;-74
2023/01/19 05:52:36;;;;;;;16.13;11.43;;;;;;;2.45;69.19;99566.56;5083418;28;20043;-73
2023/01/19 05:55:39;;;;;;;;;;;;;;;2.41;70.03;99563.25;5101943;28;20424;-74
2023/01/19 05:58:42;;;;;;;16.25;10.88;;;;;;;2.56;69.94;99567.91;5104377;28;20411;-76
2023/01/19 06:01:47;;;;;;;14.32;9.43;;;;;;;2.23;70.92;99569.03;5120216;28;20061;-80
2023/01/19 06:05:03;;;;;;;12.88;8.45;;;;;;;2.50;70.58;99578.44;5125372;28;20506;-87
2023/01/19 06:09:01;;;;;;;13.13;9.52;;;;;;;2.55;70.14;99567.94;5124936;28;20092;-88
2023/01/19 06:12:06;;;;;;;10.75;7.97;;;;;;;2.61;70.38;99570.31;5110398;28;20085;-79
2023/01/19 06:15:13;;;;;;;11.65;7.63;;;;;;;2.82;68.66;99573.88;5110889;28;20042;-79
2023/01/19 06:18:17;;;;;;;13.68;8.52;;;;;;;2.90;68.19;99577.00;5111561;28;20038;-79
2023/01/19 06:21:21;;;;;;;;;;;;;;;3.04;67.99;99581.69;5111705;28;20038;-79
2023/01/19 06:24:25;;;;;;;10.60;7.05;;;;;;;3.06;67.18;99584.22;5109203;28;19939;-80
2023/01/19 06:27:28;;;;;;;10.05;6.68;;;;;;;2.97;68.00;99578.50;5089197;28;20050;-79
2023/01/19 06:30:32;;;;;;;10.77;5.82;;;;;;;3.08;68.15;99580.69;5089818;28;20043;-79
2023/01/19 06:33:35;;;;;;;;;;;;;;;3.00;69.33;99583.56;5090836;28;20097;-80
2023/01/19 06:36:39;;;;;;;8.13;5.68;;;;;;;2.73;70.87;99580.22;5091779;28;20380;-80
2023/01/19 06:39:44;;;;;;;;;;;;;;;2.79;71.05;99579.16;5111083;28;20472;-80
2023/01/19 06:42:47;;;;;;;9.48;6.30;;;;;;;2.92;70.65;99579.56;5107990;28;19925;-80
2023/01/19 06:45:55;;;;;;;9.57;6.03;;;;;;;2.93;70.24;99576.06;5110816;28;20059;-79
2023/01/19 06:48:58;;;;;;;9.68;6.70;;;;;;;3.10;68.43;99570.31;5108428;28;20054;-78
2023/01/19 06:52:01;;;;;;;14.93;6.93;;;;;;;2.91;70.21;99576.13;5107567;28;20100;-78
2023/01/19 06:55:11;;;;;;;8.55;5.70;;;;;;;3.10;68.54;99583.22;5109808;28;20058;-79
2023/01/19 06:58:15;;;;;;;11.52;6.20;;;;;;;2.97;69.36;99582.81;5110345;28;20131;-79
2023/01/19 07:01:19;;;;;;;8.68;5.80;;;;;;;3.13;68.45;99585.69;5110491;28;20108;-79
2023/01/19 07:04:24;;;;;;;11.30;5.97;;;;;;;2.91;70.25;99589.06;5110881;28;20318;-80
2023/01/19 07:07:27;;;;;;;;;;;;;;;3.10;67.90;99588.38;5109948;28;20432;-79
2023/01/19 07:10:30;;;;;;;10.07;5.03;;;;;;;3.29;66.56;99589.41;5104756;28;19918;-78
2023/01/19 07:13:35;;;;;;;10.65;4.60;;;;;;;3.09;69.50;99594.44;5108557;28;20046;-80
2023/01/19 07:16:40;;;;;;;9.23;6.63;;;;;;;2.94;70.03;99601.84;5109305;28;20066;-80
2023/01/19 07:19:45;;;;;;;10.57;5.93;;;;;;;2.88;70.04;99596.06;5109460;28;20061;-79
2023/01/19 07:22:55;;;;;;;9.80;5.43;;;;;;;2.85;70.75;99602.16;5109339;28;20055;-79
2023/01/19 07:26:00;;;;;;;8.90;5.35;;;;;;;2.71;70.68;99606.97;5098455;28;20082;-79
2023/01/19 07:29:04;;;;;;;12.55;5.47;;;;;;;2.87;70.21;99600.38;5088672;28;20586;-79
2023/01/19 07:32:11;;;;;;;;;;;;;;;2.83;70.16;99616.03;5088981;28;20075;-80
2023/01/19 07:35:21;;;;;;;12.25;7.50;;;;;;;2.78;69.94;99616.19;5095295;28;19923;-80
2023/01/19 07:38:27;;;;;;;9.20;6.22;;;;;;;2.91;69.87;99614.03;5088092;28;20047;-80
2023/01/19 07:41:32;;;;;;;13.80;6.72;;;;;;;2.95;69.48;99619.03;5107231;28;20407;-79
2023/01/19 07:44:35;;;;;;;9.98;5.50;;;;;;;2.84;70.37;99623.72;5108484;28;20046;-80
2023/01/19 07:47:42;;;;;;;12.70;8.45;;;;;;;2.87;70.12;99622.75;5107680;28;20587;-80
2023/01/19 07:50:45;;;;;;;9.82;7.40;;;;;;;3.04;69.28;99623.03;5103853;28;20041;-80
2023/01/19 07:53:50;;;;;;;10.80;6.65;;;;;;;3.03;69.36;99626.47;5108604;28;20657;-80
2023/01/19 07:56:53;;;;;;;8.95;6.82;;;;;;;3.00;69.45;99619.72;5109194;28;20046;-80
2023/01/19 07:59:57;;;;;;;9.30;6.40;;;;;;;2.78;70.57;99621.38;5109151;28;20511;-80
2023/01/19 08:03:02;;;;;;;12.32;6.47;;;;;;;2.99;71.07;99623.16;5108279;28;20427;-80
2023/01/19 08:06:06;;;;;;;8.40;5.97;;;;;;;3.08;70.54;99626.34;5088055;28;20047;-80
2023/01/19 08:09:11;;;;;;;8.02;6.13;;;;;;;3.10;71.14;99634.88;5087913;28;20039;-81
2023/01/19 08:12:16;;;;;;;7.78;5.97;;;;;;;3.12;71.13;99643.41;5089156;28;20047;-80
2023/01/19 08:15:22;;;;;;;11.07;5.43;;;;;;;3.17;71.47;99642.34;5105297;28;20042;-79
2023/01/19 08:18:32;;;;;;;6.70;5.50;;;;;;;3.16;71.65;99644.97;5107935;28;20034;-80
2023/01/19 08:21:37;;;;;;;15.52;9.25;;;;;;;3.08;71.39;99659.91;5108339;28;20046;-80
2023/01/19 08:24:41;;;;;;;12.93;6.30;;;;;;;3.04;72.47;99661.75;5087688;28;20441;-80
2023/01/19 08:27:44;;;;;;;11.43;5.78;;;;;;;3.25;70.86;99662.72;5086014;28;20464;-80
2023/01/19 08:30:54;;;;;;;9.38;5.63;;;;;;;3.35;70.66;99671.84;5087215;28;20106;-80
2023/01/19 08:34:02;;;;;;;14.07;6.68;;;;;;;3.44;68.61;99668.91;5087352;28;20047;-80
2023/01/19 08:37:05;;;;;;;8.35;5.80;;;;;;;3.24;69.56;99671.38;5092129;28;20038;-80
2023/01/19 08:40:09;;;;;;;12.48;7.32;;;;;;;3.24;70.02;99679.13;5107140;28;20519;-80
2023/01/19 08:43:16;;;;;;;8.73;5.70;;;;;;;3.35;70.07;99684.78;5095323;28;20051;-81
2023/01/19 08:46:20;;;;;;;10.50;5.60;;;;;;;3.41;70.83;99684.53;5107582;28;20360;-80
2023/01/19 08:49:24;;;;;;;9.48;5.88;;;;;;;3.13;71.91;99689.84;5108737;28;20412;-80
2023/01/19 08:52:28;;;;;;;8.50;6.10;;;;;;;3.42;70.94;99691.41;5108285;28;20051;-80
2023/01/19 08:55:33;;;;;;;10.50;6.78;;;;;;;3.46;71.68;99684.38;5107724;28;20086;-80
2023/01/19 08:58:36;;;;;;;11.82;6.18;;;;;;;3.49;71.18;99674.75;5107551;28;20082;-78
2023/01/19 09:01:40;;;;;;;7.43;5.65;;;;;;;3.53;70.93;99687.56;5105954;28;20092;-78
2023/01/19 09:04:43;;;;;;;7.05;4.15;;;;;;;3.54;70.69;99692.66;5107090;28;20088;-78
2023/01/19 09:07:50;;;;;;;7.30;4.82;;;;;;;3.58;70.53;99683.09;5108593;28;20205;-79
2023/01/19 09:10:53;;;;;;;8.73;4.72;;;;;;;3.62;70.80;99687.22;5103278;28;20514;-79
2023/01/19 09:13:57;;;;;;;8.75;4.85;;;;;;;3.60;70.82;99687.28;5108190;28;20092;-79
2023/01/19 09:17:00;;;;;;;7.28;4.80;;;;;;;3.67;70.79;99687.88;5090731;28;20062;-79
2023/01/19 09:20:13;;;;;;;6.90;4.20;;;;;;;3.63;70.34;99691.50;5094958;28;20565;-79
2023/01/19 09:23:19;;;;;;;10.68;4.25;;;;;;;3.78;70.90;99690.09;5106835;28;20431;-80
2023/01/19 09:26:57;;;;;;;6.60;4.53;;;;;;;3.76;71.13;99692.72;5107260;28;20120;-80
2023/01/19 09:29:54;;;;;;;17.08;5.50;;;;;;;3.64;71.00;99696.63;5085877;28;20055;-80
2023/01/19 09:33:01;;;;;;;;;;;;;;;3.76;71.21;99690.13;5108419;28;20565;-80
2023/01/19 09:36:06;;;;;;;9.65;5.95;;;;;;;3.84;70.77;99689.88;5108044;28;20077;-80
2023/01/19 09:39:09;;;;;;;6.45;4.22;;;;;;;3.88;70.23;99694.00;5107089;28;20476;-80
2023/01/19 09:42:25;;;;;;;6.45;4.18;;;;;;;3.81;71.01;99695.16;5106685;28;20093;-75
2023/01/19 09:45:50;;;;;;;7.72;4.63;;;;;;;3.82;71.04;99692.50;5102195;28;20051;-71
2023/01/19 09:48:57;;;;;;;7.80;4.88;;;;;;;3.91;70.30;99697.31;5109615;28;20076;-74
2023/01/19 09:52:01;;;;;;;9.85;4.53;;;;;;;3.80;70.40;99691.72;5096499;28;20055;-76
2023/01/19 09:55:21;;;;;;;7.40;4.90;;;;;;;3.88;69.74;99710.38;5090704;28;20059;-76
2023/01/19 09:58:24;;;;;;;6.28;4.55;;;;;;;3.80;70.51;99709.81;5107430;28;20066;-76
2023/01/19 10:01:52;;;;;;;6.18;3.85;;;;;;;3.86;70.45;99711.31;5110756;28;20097;-76
2023/01/19 10:04:59;;;;;;;9.07;4.25;;;;;;;3.78;70.46;99713.38;5098773;28;20093;-76
2023/01/19 10:08:29;;;;;;;15.82;7.72;;;;;;;3.69;71.22;99714.53;5103970;28;20114;-76
2023/01/19 10:11:38;;;;;;;7.47;5.15;;;;;;;3.73;71.47;99713.50;5097101;28;20275;-77
2023/01/19 10:14:54;;;;;;;7.63;5.10;;;;;;;3.49;71.91;99716.13;5110224;28;20096;-76
2023/01/19 10:18:17;;;;;;;9.95;6.25;;;;;;;3.62;72.28;99720.84;5111519;28;20074;-76
2023/01/19 10:21:30;;;;;;;8.73;5.68;;;;;;;3.63;72.03;99717.34;5110538;28;20066;-77
2023/01/19 10:24:39;;;;;;;13.50;7.22;;;;;;;3.79;72.29;99715.03;5097975;28;20074;-76
2023/01/19 10:27:43;;;;;;;12.70;6.22;;;;;;;3.63;72.47;99709.59;5110163;28;20105;-77
2023/01/19 10:30:53;;;;;;;9.43;5.45;;;;;;;3.60;73.45;99704.53;5110406;28;20097;-77
2023/01/19 10:33:57;;;;;;;9.07;5.00;;;;;;;3.50;73.24;99712.63;5110282;28;20042;-77
2023/01/19 10:37:20;;;;;;;11.02;5.40;;;;;;;3.59;73.45;99713.19;5109900;28;20085;-77
2023/01/19 10:40:36;;;;;;;12.27;5.25;;;;;;;3.69;72.76;99714.53;5109334;28;20130;-77
2023/01/19 10:43:43;;;;;;;7.88;4.95;;;;;;;3.53;73.52;99706.50;5098120;28;20176;-77
2023/01/19 10:46:48;;;;;;;7.32;5.47;;;;;;;3.49;73.88;99718.69;5109655;28;20456;-77
2023/01/19 10:49:52;;;;;;;8.93;4.10;;;;;;;3.36;74.22;99724.38;5110133;28;20066;-79
2023/01/19 10:53:02;;;;;;;9.05;6.13;;;;;;;3.55;73.49;99719.38;5110077;28;20042;-78
2023/01/19 10:56:10;;;;;;;7.85;4.60;;;;;;;3.52;73.68;99714.31;5088950;28;20047;-78
2023/01/19 10:59:35;;;;;;;7.57;5.45;;;;;;;3.59;72.65;99720.94;5089379;28;20091;-78
2023/01/19 11:02:48;;;;;;;;;;;;;;;3.64;73.09;99716.47;5090652;28;20054;-78
2023/01/19 11:05:51;;;;;;;7.50;3.78;;;;;;;3.59;72.67;99726.13;5089534;28;19931;-81
2023/01/19 11:09:13;;;;;;;9.02;3.65;;;;;;;3.67;72.49;99716.31;5099114;28;20046;-77
2023/01/19 11:12:22;;;;;;;7.40;4.15;;;;;;;3.66;72.33;99717.22;5109466;28;20050;-78
2023/01/19 11:15:44;;;;;;;8.05;4.28;;;;;;;3.56;72.29;99715.88;5108963;28;20058;-78
2023/01/19 11:18:51;;;;;;;8.05;3.92;;;;;;;3.50;72.73;99728.13;5089883;28;20047;-78
2023/01/19 11:22:23;;;;;;;7.45;4.00;;;;;;;3.33;72.91;99730.47;5089690;28;20079;-79
2023/01/19 11:25:30;;;;;;;7.50;4.28;;;;;;;3.35;72.94;99723.53;5089348;28;20160;-79
2023/01/19 11:28:38;;;;;;;7.50;3.15;;;;;;;3.46;72.31;99718.81;5089033;28;20097;-79
2023/01/19 11:31:43;;;;;;;7.47;5.05;;;;;;;3.63;71.63;99722.53;5089044;28;20105;-78
2023/01/19 11:34:47;;;;;;;10.80;6.75;;;;;;;3.61;71.95;99714.84;5089994;28;20051;-78
2023/01/19 11:38:17;;;;;;;8.13;4.82;;;;;;;3.67;71.89;99718.91;5102276;28;20468;-78
2023/01/19 11:41:26;;;;;;;9.43;5.32;;;;;;;3.35;72.48;99717.50;5111710;28;20097;-78
2023/01/19 11:44:34;;;;;;;5.70;3.65;;;;;;;3.56;71.43;99715.88;5111027;28;20051;-78
2023/01/19 11:47:43;;;;;;;7.80;4.30;;;;;;;3.43;71.98;99716.34;5096897;28;20078;-77
2023/01/19 11:50:48;;;;;;;8.50;4.05;;;;;;;3.55;71.70;99716.81;5109322;28;20054;-77
2023/01/19 11:53:52;;;;;;;12.95;3.90;;;;;;;3.61;70.47;99714.00;5108924;28;20047;-77
2023/01/19 11:56:58;;;;;;;9.40;4.50;;;;;;;3.75;70.79;99716.06;5108506;28;20130;-77
2023/01/19 12:00:30;;;;;;;13.45;6.93;;;;;;;3.94;70.26;99720.47;5107436;28;20042;-77
2023/01/19 12:03:38;;;;;;;6.13;4.25;;;;;;;3.88;70.41;99717.28;5076471;28;20413;-78
2023/01/19 12:06:50;;;;;;;50.67;30.55;;;;;;;3.84;70.27;99716.56;5108177;28;20047;-78
2023/01/19 12:10:01;;;;;;;45.90;33.00;;;;;;;3.87;70.33;99721.63;5109150;28;20049;-75
2023/01/19 12:13:04;;;;;;;8.15;4.93;;;;;;;3.76;70.08;99721.16;5109709;28;20046;-81
2023/01/19 12:16:17;;;;;;;11.90;5.97;;;;;;;3.63;70.28;99723.34;5099971;28;20455;-75
2023/01/19 12:19:34;;;;;;;6.80;3.53;;;;;;;3.63;70.57;99717.34;5087358;28;20038;-75
2023/01/19 12:22:49;;;;;;;11.43;6.32;;;;;;;3.69;71.43;99711.94;5091489;28;20467;-76
2023/01/19 12:26:00;;;;;;;8.40;4.85;;;;;;;3.61;72.00;99716.59;5087503;28;20510;-79
2023/01/19 12:29:10;;;;;;;8.80;5.97;;;;;;;3.84;72.25;99711.38;5088184;28;20512;-75
2023/01/19 12:32:15;;;;;;;8.35;4.95;;;;;;;3.62;72.06;99715.66;5095775;28;20073;-76
2023/01/19 12:35:56;;;;;;;8.63;4.72;;;;;;;3.66;72.39;99706.91;5107755;28;20055;-77
2023/01/19 12:39:01;;;;;;;7.43;3.88;;;;;;;3.81;71.67;99711.50;5108734;28;20045;-77
2023/01/19 12:42:13;;;;;;;6.50;3.88;;;;;;;3.93;71.60;99716.22;5107932;28;20070;-75
2023/01/19 12:45:21;;;;;;;14.50;8.65;;;;;;;3.84;71.31;99721.72;5107984;28;20131;-77
2023/01/19 12:48:26;;;;;;;10.38;5.57;;;;;;;3.92;71.77;99714.53;5082992;28;20373;-82
2023/01/19 12:51:30;;;;;;;6.05;3.95;;;;;;;4.02;71.66;99714.16;5106824;28;20104;-77
2023/01/19 12:54:35;;;;;;;7.45;4.88;;;;;;;3.91;72.09;99722.34;5106942;28;20135;-77
2023/01/19 12:58:04;;;;;;;9.40;4.28;;;;;;;3.88;71.65;99728.47;5106993;28;20104;-79
2023/01/19 13:01:17;;;;;;;7.10;4.70;;;;;;;3.88;71.91;99725.88;5108440;28;20124;-79
2023/01/19 13:04:33;;;;;;;9.95;4.90;;;;;;;4.02;72.04;99724.50;5102407;28;20110;-77
2023/01/19 13:08:00;;;;;;;9.00;4.50;;;;;;;3.99;72.44;99720.31;5092256;28;20055;-77
2023/01/19 13:11:11;;;;;;;10.27;4.45;;;;;;;4.06;72.03;99726.09;5107352;28;20054;-76
2023/01/19 13:14:35;;;;;;;7.55;4.78;;;;;;;4.05;71.81;99719.22;5097923;28;20161;-75
2023/01/19 13:17:49;;;;;;;11.27;4.50;;;;;;;3.91;71.58;99714.59;5101135;28;20050;-75
2023/01/19 13:21:00;;;;;;;11.82;4.93;;;;;;;3.91;72.29;99714.59;5089662;28;20047;-77
2023/01/19 13:24:13;;;;;;;8.02;4.63;;;;;;;4.11;72.15;99719.81;5092157;28;20224;-80
2023/01/19 13:27:16;;;;;;;9.52;4.40;;;;;;;4.20;71.91;99713.47;5107041;28;20127;-76
2023/01/19 13:30:25;;;;;;;9.95;5.20;;;;;;;4.17;72.28;99718.75;5099760;28;20132;-75
2023/01/19 13:33:38;;;;;;;7.50;4.68;;;;;;;4.10;72.14;99723.31;5092099;28;20098;-77
2023/01/19 13:36:45;;;;;;;8.43;4.57;;;;;;;4.23;71.18;99721.09;5092532;28;20050;-77
2023/01/19 13:39:53;;;;;;;11.43;6.10;;;;;;;4.29;71.26;99714.84;5110108;28;20039;-76
2023/01/19 13:42:57;;;;;;;9.82;5.03;;;;;;;4.34;70.94;99712.91;5099327;28;20184;-77
2023/01/19 13:46:02;;;;;;;12.65;5.22;;;;;;;4.41;70.55;99716.97;5111393;28;20046;-77
2023/01/19 13:49:27;;;;;;;10.25;6.97;;;;;;;4.46;71.18;99711.59;5112296;28;20112;-77
2023/01/19 13:52:31;;;;;;;9.68;4.72;;;;;;;4.48;70.89;99718.41;5112908;28;20561;-74
2023/01/19 13:55:35;;;;;;;10.65;4.40;;;;;;;4.51;70.44;99712.25;5099468;28;20101;-76
2023/01/19 13:58:38;;;;;;;;;;;;;;;4.60;69.38;99728.25;5112545;28;20050;-76
2023/01/19 14:01:49;;;;;;;29.00;17.95;;;;;;;4.59;69.81;99720.53;5111127;28;20048;-76
2023/01/19 14:04:56;;;;;;;8.63;4.05;;;;;;;4.62;69.13;99720.41;5103205;28;20089;-76
2023/01/19 14:08:12;;;;;;;6.00;3.80;;;;;;;4.61;68.64;99718.75;5107387;28;20122;-76
2023/01/19 14:11:15;;;;;;;14.65;9.10;;;;;;;4.60;69.72;99720.50;5089765;28;20096;-77
2023/01/19 14:14:26;;;;;;;20.48;14.40;;;;;;;4.60;70.23;99723.09;5109315;28;20058;-78
2023/01/19 14:17:31;;;;;;;9.45;5.88;;;;;;;4.63;70.41;99714.34;5109225;28;20042;-75
2023/01/19 14:20:45;;;;;;;13.18;6.25;;;;;;;4.65;69.83;99721.13;5108799;28;20038;-79
2023/01/19 14:24:06;;;;;;;18.88;8.80;;;;;;;4.55;70.06;99724.16;5111021;28;20046;-79
2023/01/19 14:27:10;;;;;;;30.60;12.55;;;;;;;4.60;69.25;99730.00;5097337;28;20062;-79
2023/01/19 14:30:35;;;;;;;19.70;10.20;;;;;;;4.62;68.13;99728.19;5109764;28;20497;-80
2023/01/19 14:33:51;;;;;;;14.88;7.72;;;;;;;4.64;68.16;99732.41;5103890;28;20041;-79
2023/01/19 14:36:57;;;;;;;19.40;8.27;;;;;;;4.55;70.10;99734.53;5106759;28;20066;-79
2023/01/19 14:40:13;;;;;;;17.13;7.72;;;;;;;4.57;70.06;99733.56;5106907;28;20412;-81
2023/01/19 14:43:20;;;;;;;11.50;4.93;;;;;;;4.47;73.12;99737.44;5109877;28;20097;-79
2023/01/19 14:46:28;;;;;;;12.80;4.55;;;;;;;4.57;72.96;99737.91;5096662;28;20039;-81
2023/01/19 14:49:34;;;;;;;;;;;;;;;4.46;74.05;99740.06;5097326;28;20062;-79
2023/01/19 14:52:41;;;;;;;9.93;4.63;;;;;;;4.37;73.81;99746.44;5108498;28;19927;-79
2023/01/19 14:55:54;;;;;;;9.65;4.18;;;;;;;4.40;73.72;99746.31;5097328;28;20397;-77
2023/01/19 14:59:01;;;;;;;9.07;3.70;;;;;;;4.32;74.05;99749.22;5109302;28;20058;-78
2023/01/19 15:02:05;;;;;;;9.23;4.45;;;;;;;4.45;73.46;99754.75;5110684;28;20100;-79
2023/01/19 15:05:09;;;;;;;8.07;4.13;;;;;;;4.50;73.54;99754.56;5090331;28;20046;-78
2023/01/19 15:08:18;;;;;;;8.20;3.60;;;;;;;4.48;73.63;99752.03;5104892;28;20293;-78
2023/01/19 15:11:30;;;;;;;8.13;3.65;;;;;;;4.38;73.73;99753.31;5100347;28;20086;-78
2023/01/19 15:14:40;;;;;;;6.85;3.53;;;;;;;4.37;74.26;99755.06;5069382;28;20095;-78
2023/01/19 15:17:45;;;;;;;7.20;3.38;;;;;;;4.22;75.15;99762.59;5097947;28;20094;-81
2023/01/19 15:20:49;;;;;;;5.57;2.78;;;;;;;4.31;75.22;99757.88;5092877;28;20454;-78
2023/01/19 15:23:54;;;;;;;10.25;3.83;;;;;;;4.53;74.21;99769.97;5065618;28;20055;-79
2023/01/19 15:27:00;;;;;;;6.97;2.90;;;;;;;4.47;74.81;99767.63;5077506;28;20131;-75
2023/01/19 15:30:13;;;;;;;8.32;3.58;;;;;;;4.58;73.84;99770.66;5090373;28;20051;-78
2023/01/19 15:33:22;;;;;;;6.53;3.47;;;;;;;4.41;74.41;99769.56;5090006;28;20117;-77
2023/01/19 15:36:30;;;;;;;5.90;2.72;;;;;;;4.36;74.76;99779.25;5090029;28;20043;-78
2023/01/19 15:39:35;;;;;;;6.93;2.72;;;;;;;4.36;75.14;99781.84;5089154;28;20043;-77
2023/01/19 15:42:38;;;;;;;;;;;;;;;4.34;75.12;99777.59;5067772;28;20117;-77
2023/01/19 15:45:59;;;;;;;10.30;3.20;;;;;;;4.10;75.54;99784.56;5069142;28;19918;-77
2023/01/19 15:49:06;;;;;;;11.07;3.25;;;;;;;4.26;75.05;99784.84;5086181;28;20043;-78
2023/01/19 15:52:10;;;;;;;7.75;4.70;;;;;;;4.37;74.35;99787.84;5089506;28;20139;-78
2023/01/19 15:55:14;;;;;;;;;;;;;;;4.18;73.97;99795.50;5076685;28;20166;-77
2023/01/19 15:58:19;;;;;;;6.72;2.75;;;;;;;4.26;74.21;99797.78;5089020;28;19981;-76
2023/01/19 16:01:30;;;;;;;7.38;2.90;;;;;;;4.06;74.07;99783.84;5088488;28;20509;-76
2023/01/19 16:04:34;;;;;;;7.72;2.80;;;;;;;4.03;73.74;99793.47;5088840;28;20244;-78